createdAt,value
2023-08-12T00:00:46.780Z,77.66
2023-08-12T00:01:43.520Z,78.02
2023-08-12T00:02:45.265Z,78.79
2023-08-12T00:03:44.380Z,79.03
2023-08-12T00:04:41.124Z,79.02
2023-08-12T00:05:38.232Z,77.79
2023-08-12T00:06:34.910Z,78.34
2023-08-12T00:07:31.859Z,78.57
2023-08-12T00:08:28.727Z,78.70
2023-08-12T00:09:26.058Z,78.92
2023-08-12T00:10:22.783Z,78.26
2023-08-12T00:11:19.958Z,78.08
2023-08-12T00:12:16.621Z,78.33
2023-08-12T00:13:15.598Z,78.48
2023-08-12T00:14:12.292Z,78.01
2023-08-12T00:15:11.577Z,78.55
2023-08-12T00:16:08.471Z,77.92
2023-08-12T00:17:05.248Z,77.24
2023-08-12T00:18:02.266Z,77.02
2023-08-12T00:18:59.526Z,76.57
2023-08-12T00:19:56.152Z,76.95
2023-08-12T00:20:52.830Z,77.44
2023-08-12T00:21:49.470Z,77.88
2023-08-12T00:22:46.146Z,76.64
2023-08-12T00:23:44.046Z,77.21
2023-08-12T00:24:41.312Z,77.04
2023-08-12T00:25:37.964Z,77.61
2023-08-12T00:26:34.658Z,76.99
2023-08-12T00:27:31.354Z,77.44
2023-08-12T00:28:27.991Z,77.43
2023-08-12T00:29:24.668Z,77.25
2023-08-12T00:30:21.463Z,77.24
2023-08-12T00:31:18.232Z,78.07
2023-08-12T00:32:15.100Z,77.53
2023-08-12T00:33:11.855Z,77.84
2023-08-12T00:34:08.532Z,76.64
2023-08-12T00:35:06.607Z,76.18
2023-08-12T00:36:03.509Z,76.96
2023-08-12T00:37:00.274Z,76.99
2023-08-12T00:37:57.010Z,77.10
2023-08-12T00:38:53.730Z,76.81
2023-08-12T00:39:50.399Z,77.06
2023-08-12T00:40:47.075Z,76.57
2023-08-12T00:41:43.820Z,76.49
2023-08-12T00:42:40.609Z,76.48
2023-08-12T00:43:37.266Z,76.37
2023-08-12T00:44:33.954Z,76.22
2023-08-12T00:45:30.769Z,76.26
2023-08-12T00:46:27.607Z,76.17
2023-08-12T00:47:24.389Z,76.07
2023-08-12T00:48:21.128Z,76.24
2023-08-12T00:49:18.326Z,76.19
2023-08-12T00:50:16.687Z,76.60
2023-08-12T00:51:13.447Z,76.56
2023-08-12T00:52:10.254Z,76.47
2023-08-12T00:53:07.806Z,76.22
2023-08-12T00:54:06.618Z,76.29
2023-08-12T00:55:04.181Z,76.46
2023-08-12T00:56:00.894Z,76.81
2023-08-12T00:56:57.564Z,76.84
2023-08-12T00:57:54.287Z,76.55
2023-08-12T00:58:51.176Z,76.72
2023-08-12T00:59:50.256Z,76.52
2023-08-12T01:00:47.201Z,76.58
2023-08-12T01:01:45.206Z,76.23
2023-08-12T01:02:49.361Z,76.63
2023-08-12T01:03:46.815Z,76.47
2023-08-12T01:04:43.557Z,76.21
2023-08-12T01:05:41.270Z,76.39
2023-08-12T01:06:40.860Z,76.16
2023-08-12T01:07:37.684Z,76.21
2023-08-12T01:08:36.597Z,75.87
2023-08-12T01:09:33.344Z,76.14
2023-08-12T01:10:36.086Z,76.10
2023-08-12T01:11:50.863Z,76.12
2023-08-12T01:13:16.646Z,76.19
2023-08-12T01:14:24.829Z,76.60
2023-08-12T01:15:27.333Z,76.66
2023-08-12T01:16:25.705Z,76.35
2023-08-12T01:17:22.658Z,76.76
2023-08-12T01:18:19.892Z,76.61
2023-08-12T01:19:30.607Z,77.01
2023-08-12T01:20:27.885Z,76.85
2023-08-12T01:21:25.986Z,76.97
2023-08-12T01:22:25.216Z,77.05
2023-08-12T01:23:22.343Z,76.24
2023-08-12T01:24:22.592Z,76.06
2023-08-12T01:25:19.276Z,76.09
2023-08-12T01:26:16.094Z,75.86
2023-08-12T01:27:15.061Z,75.52
2023-08-12T01:28:11.946Z,75.30
2023-08-12T01:29:08.905Z,76.13
2023-08-12T01:30:07.244Z,76.82
2023-08-12T01:31:33.052Z,77.13
2023-08-12T01:32:33.668Z,77.15
2023-08-12T01:33:37.951Z,77.30
2023-08-12T01:34:43.672Z,77.32
2023-08-12T01:35:52.717Z,77.68
2023-08-12T01:36:57.719Z,77.18
2023-08-12T01:37:57.179Z,77.20
2023-08-12T01:38:56.961Z,76.10
2023-08-12T01:39:56.314Z,76.52
2023-08-12T01:40:53.665Z,76.72
2023-08-12T01:41:52.493Z,76.90
2023-08-12T01:42:49.599Z,76.09
2023-08-12T01:43:47.312Z,76.14
2023-08-12T01:44:44.081Z,76.61
2023-08-12T01:45:42.629Z,76.85
2023-08-12T01:46:39.302Z,77.52
2023-08-12T01:47:36.038Z,77.22
2023-08-12T01:48:32.829Z,77.57
2023-08-12T01:49:29.791Z,77.45
2023-08-12T01:50:26.940Z,77.03
2023-08-12T01:51:23.632Z,76.95
2023-08-12T01:52:20.313Z,76.72
2023-08-12T01:53:17.130Z,76.75
2023-08-12T01:54:13.794Z,77.02
2023-08-12T01:55:10.491Z,76.43
2023-08-12T01:56:07.240Z,75.89
2023-08-12T01:57:09.875Z,75.94
2023-08-12T01:58:06.913Z,75.64
2023-08-12T01:59:03.689Z,76.04
2023-08-12T02:00:02.049Z,76.26
2023-08-12T02:00:58.713Z,75.85
2023-08-12T02:01:55.365Z,76.19
2023-08-12T02:02:52.312Z,76.45
2023-08-12T02:03:49.226Z,75.84
2023-08-12T02:04:47.566Z,76.49
2023-08-12T02:05:44.757Z,75.91
2023-08-12T02:06:41.525Z,75.71
2023-08-12T02:07:38.196Z,75.67
2023-08-12T02:08:34.937Z,75.89
2023-08-12T02:09:31.919Z,76.38
2023-08-12T02:10:28.745Z,77.21
2023-08-12T02:11:25.460Z,77.39
2023-08-12T02:12:22.181Z,77.76
2023-08-12T02:13:18.947Z,77.85
2023-08-12T02:14:15.808Z,77.86
2023-08-12T02:15:12.470Z,77.81
2023-08-12T02:16:09.822Z,77.96
2023-08-12T02:17:07.155Z,77.97
2023-08-12T02:18:05.239Z,77.85
2023-08-12T02:19:02.047Z,78.71
2023-08-12T02:19:58.813Z,78.16
2023-08-12T02:20:55.510Z,78.55
2023-08-12T02:21:52.196Z,79.21
2023-08-12T02:22:48.887Z,79.56
2023-08-12T02:23:45.649Z,79.44
2023-08-12T02:24:42.313Z,79.56
2023-08-12T02:25:39.030Z,79.80
2023-08-12T02:26:35.874Z,79.52
2023-08-12T02:27:32.581Z,79.30
2023-08-12T02:28:29.266Z,79.66
2023-08-12T02:29:26.128Z,80.82
2023-08-12T02:30:22.896Z,82.36
2023-08-12T02:31:19.965Z,81.83
2023-08-12T02:32:16.772Z,82.85
2023-08-12T02:33:13.563Z,83.50
2023-08-12T02:34:10.885Z,82.13
2023-08-12T02:35:07.892Z,81.97
2023-08-12T02:36:04.889Z,83.45
2023-08-12T02:37:01.567Z,83.46
2023-08-12T02:37:58.200Z,83.68
2023-08-12T02:38:54.882Z,84.67
2023-08-12T02:39:51.559Z,84.65
2023-08-12T02:40:51.660Z,85.42
2023-08-12T02:41:48.365Z,84.99
2023-08-12T02:42:45.015Z,84.37
2023-08-12T02:43:41.711Z,83.66
2023-08-12T02:44:38.493Z,83.87
2023-08-12T02:45:35.350Z,84.76
2023-08-12T02:46:32.043Z,85.97
2023-08-12T02:47:29.273Z,87.04
2023-08-12T02:48:26.041Z,87.17
2023-08-12T02:49:22.714Z,86.67
2023-08-12T02:50:19.507Z,86.53
2023-08-12T02:51:16.234Z,86.37
2023-08-12T02:52:12.915Z,85.64
2023-08-12T02:53:09.577Z,84.73
2023-08-12T02:54:06.541Z,85.37
2023-08-12T02:55:03.321Z,85.70
2023-08-12T02:56:00.068Z,85.30
2023-08-12T02:56:56.760Z,84.45
2023-08-12T02:57:53.521Z,83.99
2023-08-12T02:58:50.326Z,84.20
2023-08-12T02:59:46.985Z,84.17
2023-08-12T03:00:46.447Z,85.25
2023-08-12T03:01:43.547Z,84.23
2023-08-12T03:02:43.890Z,83.13
2023-08-12T03:03:40.594Z,82.03
2023-08-12T03:04:37.274Z,83.39
2023-08-12T03:05:33.947Z,82.68
2023-08-12T03:06:30.610Z,81.98
2023-08-12T03:07:27.272Z,82.87
2023-08-12T03:08:23.953Z,84.40
2023-08-12T03:09:21.430Z,86.08
2023-08-12T03:10:18.344Z,87.70
2023-08-12T03:11:15.122Z,88.34
2023-08-12T03:12:11.854Z,87.39
2023-08-12T03:13:08.924Z,86.61
2023-08-12T03:14:05.678Z,87.55
2023-08-12T03:15:03.533Z,88.33
2023-08-12T03:16:00.243Z,88.51
2023-08-12T03:16:56.952Z,87.80
2023-08-12T03:17:53.689Z,87.82
2023-08-12T03:18:50.368Z,87.65
2023-08-12T03:19:47.051Z,87.66
2023-08-12T03:20:43.709Z,87.84
2023-08-12T03:21:40.396Z,87.70
2023-08-12T03:22:38.386Z,87.37
2023-08-12T03:23:36.996Z,87.77
2023-08-12T03:24:33.655Z,87.94
2023-08-12T03:25:30.315Z,88.77
2023-08-12T03:26:27.164Z,89.08
2023-08-12T03:27:23.958Z,89.95
2023-08-12T03:28:20.632Z,91.20
2023-08-12T03:29:17.413Z,91.58
2023-08-12T03:30:14.180Z,90.91
2023-08-12T03:31:10.905Z,90.85
2023-08-12T03:32:07.647Z,91.42
2023-08-12T03:33:04.699Z,92.00
2023-08-12T03:34:02.082Z,92.70
2023-08-12T03:34:58.881Z,92.48
2023-08-12T03:35:55.603Z,92.26
2023-08-12T03:36:52.289Z,92.01
2023-08-12T03:37:48.924Z,91.68
2023-08-12T03:38:45.738Z,91.24
2023-08-12T03:39:42.485Z,92.40
2023-08-12T03:40:39.970Z,93.29
2023-08-12T03:41:36.625Z,92.62
2023-08-12T03:42:34.100Z,92.67
2023-08-12T03:43:30.857Z,92.85
2023-08-12T03:44:27.516Z,93.27
2023-08-12T03:45:24.187Z,93.19
2023-08-12T03:46:20.918Z,93.83
2023-08-12T03:47:22.929Z,94.11
2023-08-12T03:48:19.791Z,93.97
2023-08-12T03:49:16.489Z,94.17
2023-08-12T03:50:13.226Z,94.33
2023-08-12T03:51:09.948Z,94.74
2023-08-12T03:52:08.277Z,94.34
2023-08-12T03:53:05.800Z,94.07
2023-08-12T03:54:02.460Z,93.34
2023-08-12T03:54:59.196Z,91.85
2023-08-12T03:55:55.882Z,91.50
2023-08-12T03:56:52.545Z,91.51
2023-08-12T03:57:49.183Z,91.91
2023-08-12T03:58:46.510Z,91.96
2023-08-12T03:59:43.158Z,91.45
2023-08-12T04:00:44.132Z,91.44
2023-08-12T04:01:40.870Z,90.89
2023-08-12T04:02:37.533Z,91.00
2023-08-12T04:03:34.271Z,91.00
2023-08-12T04:04:31.192Z,91.25
2023-08-12T04:05:27.930Z,92.60
2023-08-12T04:06:24.644Z,93.56
2023-08-12T04:07:21.381Z,93.73
2023-08-12T04:08:18.125Z,94.25
2023-08-12T04:09:14.905Z,94.09
2023-08-12T04:10:11.904Z,94.30
2023-08-12T04:11:08.721Z,94.88
2023-08-12T04:12:05.616Z,94.80
2023-08-12T04:13:02.254Z,94.12
2023-08-12T04:13:59.062Z,93.74
2023-08-12T04:14:55.756Z,93.82
2023-08-12T04:15:54.353Z,93.75
2023-08-12T04:16:51.256Z,93.72
2023-08-12T04:17:48.009Z,93.67
2023-08-12T04:18:44.686Z,93.79
2023-08-12T04:19:41.338Z,94.27
2023-08-12T04:20:39.480Z,94.66
2023-08-12T04:21:36.206Z,94.29
2023-08-12T04:22:33.036Z,94.16
2023-08-12T04:23:29.733Z,93.25
2023-08-12T04:24:26.400Z,92.72
2023-08-12T04:25:23.467Z,92.27
2023-08-12T04:26:20.240Z,92.05
2023-08-12T04:27:17.535Z,92.27
2023-08-12T04:28:15.255Z,92.38
2023-08-12T04:29:11.950Z,92.07
2023-08-12T04:30:09.225Z,92.21
2023-08-12T04:31:09.085Z,91.45
2023-08-12T04:32:06.288Z,91.39
2023-08-12T04:33:03.111Z,91.32
2023-08-12T04:33:59.782Z,90.77
2023-08-12T04:34:56.406Z,90.53
2023-08-12T04:35:54.090Z,90.52
2023-08-12T04:36:50.763Z,90.42
2023-08-12T04:37:47.451Z,90.14
2023-08-12T04:38:44.124Z,89.61
2023-08-12T04:39:41.457Z,89.15
2023-08-12T04:40:41.656Z,89.07
2023-08-12T04:41:39.540Z,88.87
2023-08-12T04:42:36.335Z,88.27
2023-08-12T04:43:33.132Z,87.84
2023-08-12T04:44:29.864Z,87.02
2023-08-12T04:45:27.341Z,86.24
2023-08-12T04:46:24.119Z,86.30
2023-08-12T04:47:20.881Z,86.31
2023-08-12T04:48:19.722Z,86.30
2023-08-12T04:49:16.426Z,85.71
2023-08-12T04:50:13.103Z,85.20
2023-08-12T04:51:09.793Z,85.04
2023-08-12T04:52:07.899Z,84.48
2023-08-12T04:53:04.993Z,84.28
2023-08-12T04:54:03.075Z,83.76
2023-08-12T04:54:59.836Z,83.94
2023-08-12T04:55:57.211Z,83.53
2023-08-12T04:56:53.953Z,83.68
2023-08-12T04:57:50.719Z,84.34
2023-08-12T04:58:47.409Z,83.72
2023-08-12T04:59:44.138Z,84.03
2023-08-12T05:00:40.940Z,83.72
2023-08-12T05:01:41.077Z,83.27
2023-08-12T05:02:44.890Z,82.81
2023-08-12T05:03:41.655Z,82.79
2023-08-12T05:04:38.351Z,82.34
2023-08-12T05:05:35.032Z,82.21
2023-08-12T05:06:31.742Z,81.94
2023-08-12T05:07:28.710Z,82.02
2023-08-12T05:08:25.453Z,82.14
2023-08-12T05:09:22.106Z,82.23
2023-08-12T05:10:19.650Z,82.67
2023-08-12T05:11:16.367Z,81.53
2023-08-12T05:12:13.737Z,81.92
2023-08-12T05:13:10.552Z,81.26
2023-08-12T05:14:07.260Z,81.97
2023-08-12T05:15:04.006Z,81.90
2023-08-12T05:16:00.868Z,81.79
2023-08-12T05:16:57.585Z,81.51
2023-08-12T05:17:54.274Z,81.13
2023-08-12T05:18:50.994Z,81.63
2023-08-12T05:19:47.686Z,80.85
2023-08-12T05:20:46.836Z,80.99
2023-08-12T05:21:44.111Z,81.46
2023-08-12T05:22:40.862Z,80.44
2023-08-12T05:23:37.513Z,80.42
2023-08-12T05:24:34.296Z,81.13
2023-08-12T05:25:30.950Z,80.53
2023-08-12T05:26:27.648Z,79.65
2023-08-12T05:27:24.397Z,79.67
2023-08-12T05:28:21.216Z,80.17
2023-08-12T05:29:17.953Z,79.70
2023-08-12T05:30:14.889Z,78.88
2023-08-12T05:31:11.680Z,79.05
2023-08-12T05:32:08.367Z,79.50
2023-08-12T05:33:05.884Z,78.94
2023-08-12T05:34:02.695Z,79.10
2023-08-12T05:34:59.423Z,78.72
2023-08-12T05:35:56.255Z,78.51
2023-08-12T05:36:52.892Z,78.14
2023-08-12T05:37:49.539Z,79.47
2023-08-12T05:38:46.288Z,79.49
2023-08-12T05:39:43.028Z,78.47
2023-08-12T05:40:39.739Z,79.50
2023-08-12T05:41:36.496Z,79.20
2023-08-12T05:42:33.143Z,78.92
2023-08-12T05:43:29.783Z,78.77
2023-08-12T05:44:26.601Z,78.30
2023-08-12T05:45:23.322Z,78.21
2023-08-12T05:46:20.122Z,78.43
2023-08-12T05:47:16.854Z,78.60
2023-08-12T05:48:13.567Z,78.48
2023-08-12T05:49:10.836Z,78.22
2023-08-12T05:50:08.056Z,77.93
2023-08-12T05:51:04.769Z,78.32
2023-08-12T05:52:01.694Z,78.51
2023-08-12T05:52:58.390Z,78.57
2023-08-12T05:53:55.090Z,78.40
2023-08-12T05:54:51.776Z,76.91
2023-08-12T05:55:48.424Z,75.51
2023-08-12T05:56:45.059Z,76.53
2023-08-12T05:57:41.843Z,76.21
2023-08-12T05:58:39.031Z,76.12
2023-08-12T05:59:35.709Z,76.51
2023-08-12T06:00:32.369Z,75.98
2023-08-12T06:01:29.107Z,75.65
2023-08-12T06:02:27.978Z,74.44
2023-08-12T06:03:24.891Z,74.90
2023-08-12T06:04:21.561Z,76.18
2023-08-12T06:05:18.282Z,76.82
2023-08-12T06:06:15.052Z,76.33
2023-08-12T06:07:11.784Z,76.32
2023-08-12T06:08:08.515Z,76.42
2023-08-12T06:09:05.553Z,76.93
2023-08-12T06:10:03.090Z,76.72
2023-08-12T06:10:59.736Z,76.55
2023-08-12T06:11:56.402Z,77.49
2023-08-12T06:12:53.043Z,76.56
2023-08-12T06:13:49.844Z,76.66
2023-08-12T06:14:46.630Z,76.07
2023-08-12T06:15:43.366Z,75.62
2023-08-12T06:16:40.148Z,75.67
2023-08-12T06:17:36.966Z,76.95
2023-08-12T06:18:34.329Z,76.79
2023-08-12T06:19:31.125Z,77.48
2023-08-12T06:20:27.919Z,76.83
2023-08-12T06:21:24.692Z,77.59
2023-08-12T06:22:21.452Z,77.08
2023-08-12T06:23:18.479Z,76.58
2023-08-12T06:24:15.109Z,76.66
2023-08-12T06:25:11.847Z,76.90
2023-08-12T06:26:08.570Z,76.33
2023-08-12T06:27:05.282Z,76.10
2023-08-12T06:28:02.711Z,76.04
2023-08-12T06:28:59.511Z,75.36
2023-08-12T06:29:56.187Z,75.94
2023-08-12T06:30:53.048Z,75.50
2023-08-12T06:31:49.792Z,76.06
2023-08-12T06:32:46.838Z,75.94
2023-08-12T06:33:43.554Z,75.24
2023-08-12T06:34:40.202Z,74.65
2023-08-12T06:35:36.856Z,74.81
2023-08-12T06:36:33.665Z,75.11
2023-08-12T06:37:30.429Z,75.30
2023-08-12T06:38:27.129Z,73.56
2023-08-12T06:39:23.817Z,72.96
2023-08-12T06:40:20.819Z,73.05
2023-08-12T06:41:17.482Z,71.94
2023-08-12T06:42:14.564Z,73.02
2023-08-12T06:43:11.802Z,73.18
2023-08-12T06:44:08.472Z,72.71
2023-08-12T06:45:05.706Z,71.88
2023-08-12T06:46:02.451Z,70.94
2023-08-12T06:46:59.153Z,72.29
2023-08-12T06:47:55.809Z,72.76
2023-08-12T06:48:52.432Z,72.20
2023-08-12T06:49:49.116Z,70.22
2023-08-12T06:50:46.529Z,69.27
2023-08-12T06:51:43.122Z,69.35
2023-08-12T06:52:39.802Z,68.93
2023-08-12T06:53:36.459Z,70.57
2023-08-12T06:54:33.190Z,70.34
2023-08-12T06:55:29.788Z,70.38
2023-08-12T06:56:26.443Z,70.43
2023-08-12T06:57:23.152Z,70.00
2023-08-12T06:58:19.794Z,69.13
2023-08-12T06:59:16.532Z,69.70
2023-08-12T07:00:13.651Z,70.75
2023-08-12T07:01:11.308Z,71.52
2023-08-12T07:02:09.976Z,71.13
2023-08-12T07:03:06.920Z,70.48
2023-08-12T07:04:03.852Z,70.93
2023-08-12T07:05:00.611Z,70.30
2023-08-12T07:05:57.571Z,69.80
2023-08-12T07:06:54.230Z,69.35
2023-08-12T07:07:51.051Z,68.26
2023-08-12T07:08:47.709Z,68.34
2023-08-12T07:09:44.667Z,68.45
2023-08-12T07:10:42.207Z,69.16
2023-08-12T07:11:39.415Z,68.94
2023-08-12T07:12:36.417Z,67.40
2023-08-12T07:13:34.694Z,67.40
2023-08-12T07:14:31.440Z,68.48
2023-08-12T07:15:28.147Z,66.77
2023-08-12T07:16:24.950Z,67.47
2023-08-12T07:17:21.577Z,67.27
2023-08-12T07:18:21.113Z,67.13
2023-08-12T07:19:17.730Z,66.98
2023-08-12T07:20:14.391Z,65.57
2023-08-12T07:21:11.173Z,66.11
2023-08-12T07:22:07.851Z,67.57
2023-08-12T07:23:04.750Z,66.87
2023-08-12T07:24:03.875Z,67.13
2023-08-12T07:25:01.246Z,66.26
2023-08-12T07:25:57.949Z,66.01
2023-08-12T07:26:54.566Z,65.91
2023-08-12T07:27:51.262Z,65.34
2023-08-12T07:28:47.979Z,64.01
2023-08-12T07:29:44.653Z,61.63
2023-08-12T07:30:41.304Z,63.66
2023-08-12T07:31:37.967Z,62.44
2023-08-12T07:32:35.014Z,63.30
2023-08-12T07:33:31.759Z,63.08
2023-08-12T07:34:31.344Z,62.56
2023-08-12T07:35:28.409Z,62.48
2023-08-12T07:36:25.243Z,62.44
2023-08-12T07:37:21.937Z,62.32
2023-08-12T07:38:18.980Z,62.45
2023-08-12T07:39:15.676Z,61.58
2023-08-12T07:40:13.696Z,62.62
2023-08-12T07:41:10.375Z,61.64
2023-08-12T07:42:07.014Z,61.64
2023-08-12T07:43:03.849Z,61.67
2023-08-12T07:44:00.643Z,60.42
2023-08-12T07:44:57.324Z,62.15
2023-08-12T07:46:08.361Z,61.81
2023-08-12T07:47:06.547Z,60.20
2023-08-12T07:48:03.408Z,61.71
2023-08-12T07:49:00.363Z,60.29
2023-08-12T07:49:56.995Z,60.34
2023-08-12T07:50:59.569Z,61.35
2023-08-12T07:51:56.634Z,62.67
2023-08-12T07:52:53.345Z,61.38
2023-08-12T07:53:50.096Z,61.07
2023-08-12T07:54:46.872Z,61.30
2023-08-12T07:55:43.905Z,60.65
2023-08-12T07:56:40.694Z,61.06
2023-08-12T07:57:37.329Z,61.31
2023-08-12T07:58:33.935Z,59.42
2023-08-12T07:59:30.626Z,59.40
2023-08-12T08:00:27.322Z,57.87
2023-08-12T08:01:23.959Z,59.71
2023-08-12T08:02:20.781Z,60.59
2023-08-12T08:03:19.838Z,60.12
2023-08-12T08:04:16.688Z,58.59
2023-08-12T08:05:13.552Z,59.30
2023-08-12T08:06:10.358Z,58.96
2023-08-12T08:07:07.123Z,58.24
2023-08-12T08:08:03.955Z,58.83
2023-08-12T08:09:04.122Z,58.60
2023-08-12T08:10:00.890Z,58.53
2023-08-12T08:10:57.560Z,57.81
2023-08-12T08:11:54.870Z,57.25
2023-08-12T08:12:52.934Z,57.24
2023-08-12T08:13:49.721Z,58.19
2023-08-12T08:14:46.494Z,56.67
2023-08-12T08:15:43.190Z,56.19
2023-08-12T08:16:41.578Z,55.90
2023-08-12T08:17:39.389Z,56.21
2023-08-12T08:18:36.205Z,56.12
2023-08-12T08:19:32.974Z,57.05
2023-08-12T08:20:29.644Z,57.03
2023-08-12T08:21:26.652Z,57.54
2023-08-12T08:22:23.368Z,56.72
2023-08-12T08:23:19.982Z,57.20
2023-08-12T08:24:17.029Z,54.69
2023-08-12T08:25:13.825Z,56.51
2023-08-12T08:26:10.832Z,57.09
2023-08-12T08:27:08.420Z,55.72
2023-08-12T08:28:05.220Z,55.15
2023-08-12T08:29:01.895Z,55.26
2023-08-12T08:29:58.517Z,55.52
2023-08-12T08:30:55.367Z,56.92
2023-08-12T08:31:52.001Z,54.62
2023-08-12T08:32:48.738Z,55.94
2023-08-12T08:33:45.669Z,56.03
2023-08-12T08:34:42.319Z,55.41
2023-08-12T08:35:39.351Z,53.77
2023-08-12T08:36:36.128Z,55.09
2023-08-12T08:37:33.061Z,54.77
2023-08-12T08:38:29.736Z,54.79
2023-08-12T08:39:27.455Z,55.16
2023-08-12T08:40:24.472Z,53.72
2023-08-12T08:41:21.776Z,53.72
2023-08-12T08:42:21.534Z,54.25
2023-08-12T08:43:23.376Z,52.83
2023-08-12T08:44:22.665Z,52.19
2023-08-12T08:45:19.405Z,53.32
2023-08-12T08:46:20.104Z,53.73
2023-08-12T08:47:20.706Z,54.36
2023-08-12T08:48:17.476Z,52.14
2023-08-12T08:50:13.580Z,51.15
2023-08-12T08:51:12.197Z,51.57
2023-08-12T08:52:08.947Z,51.30
2023-08-12T08:53:07.683Z,52.35
2023-08-12T08:54:07.325Z,51.70
2023-08-12T08:55:08.049Z,51.38
2023-08-12T08:56:14.819Z,52.75
2023-08-12T08:57:16.876Z,51.86
2023-08-12T08:58:22.374Z,50.38
2023-08-12T08:59:20.431Z,50.31
2023-08-12T09:00:19.047Z,50.87
2023-08-12T09:01:18.929Z,51.46
2023-08-12T09:02:19.792Z,51.87
2023-08-12T09:03:17.054Z,51.64
2023-08-12T09:04:19.332Z,51.15
2023-08-12T09:05:17.178Z,50.83
2023-08-12T09:06:14.273Z,49.34
2023-08-12T09:07:12.193Z,50.80
2023-08-12T09:08:12.198Z,51.61
2023-08-12T09:09:13.783Z,49.77
2023-08-12T09:10:14.846Z,50.22
2023-08-12T09:11:14.659Z,52.09
2023-08-12T09:12:15.066Z,50.03
2023-08-12T09:13:12.055Z,49.38
2023-08-12T09:14:09.758Z,49.00
2023-08-12T09:15:07.926Z,48.74
2023-08-12T09:16:05.598Z,49.05
2023-08-12T09:17:02.952Z,47.23
2023-08-12T09:18:00.210Z,48.45
2023-08-12T09:18:57.494Z,48.15
2023-08-12T09:19:54.196Z,47.63
2023-08-12T09:20:54.890Z,47.70
2023-08-12T09:21:57.262Z,47.43
2023-08-12T09:22:58.469Z,48.21
2023-08-12T09:23:56.266Z,46.70
2023-08-12T09:24:59.426Z,48.89
2023-08-12T09:25:56.147Z,46.62
2023-08-12T09:26:56.676Z,47.35
2023-08-12T09:27:56.528Z,46.72
2023-08-12T09:28:55.261Z,45.84
2023-08-12T09:29:57.944Z,45.80
2023-08-12T09:30:54.684Z,46.39
2023-08-12T09:31:51.695Z,46.92
2023-08-12T09:33:05.166Z,47.40
2023-08-12T09:34:08.015Z,46.88
2023-08-12T09:35:06.974Z,45.77
2023-08-12T09:36:03.762Z,44.99
2023-08-12T09:37:00.759Z,45.18
2023-08-12T09:37:57.394Z,45.52
2023-08-12T09:38:54.466Z,45.42
2023-08-12T09:39:52.571Z,43.04
2023-08-12T09:40:49.545Z,44.39
2023-08-12T09:41:46.289Z,45.38
2023-08-12T09:42:47.038Z,46.22
2023-08-12T09:43:44.586Z,45.34
2023-08-12T09:44:42.309Z,44.63
2023-08-12T09:45:39.004Z,45.07
2023-08-12T09:46:35.755Z,46.68
2023-08-12T09:47:34.908Z,44.66
2023-08-12T09:48:31.775Z,44.74
2023-08-12T09:49:29.158Z,43.90
2023-08-12T09:50:26.796Z,43.98
2023-08-12T09:51:23.638Z,45.07
2023-08-12T09:52:20.394Z,43.95
2023-08-12T09:53:17.749Z,43.06
2023-08-12T09:54:17.408Z,42.87
2023-08-12T09:55:18.109Z,43.83
2023-08-12T09:56:18.453Z,43.83
2023-08-12T09:57:17.904Z,44.33
2023-08-12T09:58:18.710Z,42.07
2023-08-12T09:59:21.506Z,43.31
2023-08-12T10:00:19.637Z,42.57
2023-08-12T10:01:21.756Z,43.40
2023-08-12T10:02:20.307Z,43.17
2023-08-12T10:03:19.041Z,42.86
2023-08-12T10:04:19.741Z,42.77
2023-08-12T10:05:29.075Z,41.20
2023-08-12T10:06:26.146Z,41.34
2023-08-12T10:07:24.515Z,42.73
2023-08-12T10:08:21.693Z,39.73
2023-08-12T10:09:19.510Z,42.01
2023-08-12T10:10:16.802Z,41.52
2023-08-12T10:11:15.030Z,42.64
2023-08-12T10:12:14.668Z,41.15
2023-08-12T10:13:13.907Z,40.92
2023-08-12T10:14:11.573Z,40.40
2023-08-12T10:15:10.152Z,41.70
2023-08-12T10:16:07.338Z,41.75
2023-08-12T10:17:06.425Z,43.25
2023-08-12T10:18:08.193Z,43.99
2023-08-12T10:19:07.321Z,42.87
2023-08-12T10:20:05.747Z,41.01
2023-08-12T10:21:03.271Z,40.40
2023-08-12T10:22:00.924Z,39.51
2023-08-12T10:22:58.319Z,39.41
2023-08-12T10:23:55.281Z,39.81
2023-08-12T10:24:52.179Z,42.00
2023-08-12T10:25:54.257Z,43.16
2023-08-12T10:26:52.583Z,41.75
2023-08-12T10:27:49.814Z,41.95
2023-08-12T10:28:46.552Z,40.82
2023-08-12T10:29:47.656Z,39.85
2023-08-12T10:30:46.222Z,39.50
2023-08-12T10:31:45.841Z,40.81
2023-08-12T10:32:43.482Z,40.26
2023-08-12T10:33:42.210Z,41.73
2023-08-12T10:34:38.952Z,40.82
2023-08-12T10:36:01.751Z,41.49
2023-08-12T10:37:04.473Z,43.47
2023-08-12T10:38:09.553Z,39.53
2023-08-12T10:39:13.184Z,39.04
2023-08-12T10:40:22.339Z,38.50
2023-08-12T10:41:27.569Z,39.55
2023-08-12T10:42:45.085Z,40.80
2023-08-12T10:43:56.572Z,42.45
2023-08-12T10:44:53.391Z,40.91
2023-08-12T10:45:56.113Z,39.81
2023-08-12T10:46:54.207Z,40.55
2023-08-12T10:48:16.072Z,44.56
2023-08-12T10:49:12.804Z,43.14
2023-08-12T10:50:21.689Z,43.96
2023-08-12T10:51:18.357Z,44.25
2023-08-12T10:52:27.613Z,42.83
2023-08-12T10:53:33.081Z,43.55
2023-08-12T10:54:33.035Z,44.44
2023-08-12T10:55:29.665Z,45.28
2023-08-12T10:56:26.294Z,44.25
2023-08-12T10:57:50.501Z,42.17
2023-08-12T10:58:48.428Z,42.37
2023-08-12T10:59:48.026Z,43.96
2023-08-12T11:00:44.804Z,43.14
2023-08-12T11:01:41.483Z,42.95
2023-08-12T11:02:38.948Z,41.40
2023-08-12T11:03:38.951Z,43.50
2023-08-12T11:04:39.488Z,43.58
2023-08-12T11:05:39.546Z,43.58
2023-08-12T11:06:46.910Z,42.48
2023-08-12T11:07:46.086Z,43.19
2023-08-12T11:08:57.957Z,42.93
2023-08-12T11:09:54.871Z,42.17
2023-08-12T11:10:51.571Z,43.53
2023-08-12T11:11:59.664Z,43.01
2023-08-12T11:12:57.482Z,43.49
2023-08-12T11:13:58.055Z,42.87
2023-08-12T11:14:55.138Z,43.57
2023-08-12T11:15:51.812Z,44.03
2023-08-12T11:16:51.095Z,42.64
2023-08-12T11:17:48.341Z,41.96
2023-08-12T11:18:45.271Z,44.74
2023-08-12T11:19:45.029Z,43.13
2023-08-12T11:20:42.099Z,42.75
2023-08-12T11:21:39.677Z,43.51
2023-08-12T11:22:39.569Z,41.77
2023-08-12T11:23:37.631Z,41.31
2023-08-12T11:24:35.105Z,40.94
2023-08-12T11:25:33.282Z,42.09
2023-08-12T11:26:30.070Z,41.70
2023-08-12T11:27:26.744Z,40.88
2023-08-12T11:28:25.472Z,40.53
2023-08-12T11:29:22.206Z,40.38
2023-08-12T11:30:21.452Z,40.67
2023-08-12T11:31:19.714Z,38.98
2023-08-12T11:32:16.463Z,41.38
2023-08-12T11:33:13.503Z,41.77
2023-08-12T11:34:10.338Z,40.24
2023-08-12T11:35:08.718Z,40.49
2023-08-12T11:36:05.684Z,41.87
2023-08-12T11:37:06.678Z,39.67
2023-08-12T11:38:03.709Z,40.81
2023-08-12T11:39:00.392Z,41.03
2023-08-12T11:39:57.111Z,39.68
2023-08-12T11:40:53.752Z,40.21
2023-08-12T11:41:51.640Z,40.73
2023-08-12T11:42:50.219Z,38.87
2023-08-12T11:43:46.884Z,38.23
2023-08-12T11:44:43.606Z,39.63
2023-08-12T11:45:43.010Z,40.19
2023-08-12T11:46:39.726Z,40.44
2023-08-12T11:47:38.152Z,38.78
2023-08-12T11:48:34.874Z,39.58
2023-08-12T11:49:31.484Z,37.96
2023-08-12T11:50:28.806Z,38.32
2023-08-12T11:51:25.648Z,38.98
2023-08-12T11:52:22.647Z,40.40
2023-08-12T11:53:19.352Z,40.48
2023-08-12T11:54:17.801Z,40.00
2023-08-12T11:55:15.374Z,40.64
2023-08-12T11:56:12.349Z,40.99
2023-08-12T11:57:09.232Z,39.69
2023-08-12T11:58:05.976Z,40.22
2023-08-12T11:59:03.053Z,41.94
2023-08-12T12:00:01.187Z,42.41
2023-08-12T12:00:58.130Z,41.00
2023-08-12T12:01:55.963Z,40.62
2023-08-12T12:02:55.004Z,39.99
2023-08-12T12:03:55.147Z,39.00
2023-08-12T12:04:53.646Z,39.34
2023-08-12T12:05:50.341Z,38.92
2023-08-12T12:06:48.992Z,39.06
2023-08-12T12:07:45.768Z,40.06
2023-08-12T12:08:42.667Z,39.47
2023-08-12T12:09:44.692Z,40.61
2023-08-12T12:10:42.200Z,40.28
2023-08-12T12:11:39.272Z,39.61
2023-08-12T12:12:36.937Z,39.04
2023-08-12T12:13:33.604Z,38.33
2023-08-12T12:14:30.313Z,37.82
2023-08-12T12:15:27.124Z,38.17
2023-08-12T12:16:23.784Z,39.03
2023-08-12T12:17:22.682Z,38.22
2023-08-12T12:18:19.410Z,39.52
2023-08-12T12:19:24.011Z,39.95
2023-08-12T12:20:21.741Z,40.67
2023-08-12T12:21:22.926Z,40.33
2023-08-12T12:22:19.556Z,40.18
2023-08-12T12:23:19.518Z,39.26
2023-08-12T12:24:16.682Z,37.98
2023-08-12T12:25:15.076Z,38.10
2023-08-12T12:26:11.924Z,37.54
2023-08-12T12:27:08.544Z,36.26
2023-08-12T12:28:05.468Z,35.31